Wheeler Sack Army Air Field
KGTB : now visible

Airfield :











YOU CAN JOIN US ON...

 
LOGIN :

Register | Disclaimer

   EN    FR    IT 

 









Legend :    VFR   Marginal VFR   IFR   Intensive IFR   Very Intensive IFR
Visi :
Ceiling :
>= 8 km
>= 3000ft
5 to 8 km
1000 to 3000 ft
1500m to 5 km
500 to 1000 ft
800 to 1500m
200 to 500 ft
< 800m
< 200 ft
Symbols :   Thunderstorms  Fog  Heavy snow  Heavy precipitations  Wind > 20 kt







- Airport Elevation : 688 ft


KGTB - Wheeler Sack Army Air Field

CURRENT METAR :
  • 181856Z AUTO 01005KT 10SM BKN035 OVC047 28/21 A2990 RMK AO2 DZB44E51 SLP122 P0000 T02810211

EXPIRED METARs :
  • 181844Z AUTO 29003KT 10SM -DZ SCT034 BKN048 BKN150 BKN200 29/21 A2990 RMK AO2 DZB44 SLP122
  • 181756Z AUTO 02003KT 10SM FEW033 BKN045 BKN210 28/21 A2990 RMK AO2 RAB07E12 SLP122 P0000 60000 T02760206 10278 20206 57024
  • 181712Z AUTO 34007KT 10SM BKN033 27/21 A2992 RMK AO2 RAB07E12 SLP129
  • 181656Z AUTO 29003KT 10SM BKN031 27/20 A2992 RMK AO2 SLP129 T02720200

TAF TAF KGTB
Valid from the 18 at 17:00 until the 19 at 23:00 UTC


181700Z 1817/1923 VRB06KT 9999 SCT030 BKN050 QNH2990INS
BECMG 1904/1905 17007KT 8000 BR SCT025 QNH2985INS
BECMG 1911/1912 24012G20KT 8000 -SHRA BKN025 QNH2976INS TX28/1820Z TN18/1910Z
KZBW FIR / North America



MET'MAP, your aeronautical weather chart ! - Copyright ORBIFLY December 2007 - Disclaimer

ORBIFLY MET'MAP TEAM :

Programming & Development : Alexandra Zaïnal
Concept & Development : Baudouin d'Aumeries
Co-Development & Prog : Marc-Olivier Méhu
Technical & hardware support : Manuel Goepfert

Contact : metmap@orbifly.com




SOURCES & CREDITS :

   NOAA       Earth
Advisory